DANE POGODOWE

WCZORAJ
Time Temp. Dewp. Hum. Kierunek Prędkość W Wind gust Bar. 1h Prec. 24h Prec.
00:07 17.2 11.9 71 270 0.3 1.4 1013.7 0.0000 0.0000
00:16 17.2 11.9 71 270 0.3 1.1 1013.7 0.0000 0.0000
00:27 17.1 11.8 71 270 0.3 1.1 1013.9 0.0000 0.0000
00:37 17.1 12 72 270 0.3 1.4 1013.7 0.0000 0.0000
00:47 17.1 12 72 270 0.3 1.1 1013.7 0.0000 0.0000
00:57 17.1 12 72 270 0.3 1.4 1013.6 0.0000 0.0000
01:07 17.1 12 72 270 0.3 0.8 1013.6 0.0000 0.0000
01:17 17.1 12 72 270 0.3 1.1 1013.6 0.0000 0.0000
01:27 17.1 12.2 73 270 0.3 1.1 1013.7 0.0000 0.0000
01:38 17.1 12.2 73 270 0.3 1.1 1013.7 0.0000 0.0000
01:48 17.1 12.2 73 270 0.3 1.1 1013.7 0.0000 0.0000
01:57 17.1 12.2 73 270 0.3 1.4 1013.7 0.0000 0.0000
02:07 17.1 12.2 73 270 0.3 1.4 1013.7 0.0000 0.0000
02:18 17.1 12.2 73 270 0.3 1.1 1013.5 0.0000 0.0000
02:28 17.1 12.2 73 270 0.3 1.1 1013.6 0.0000 0.0000
02:38 17.1 12.2 73 270 0.3 1.1 1013.5 0.0000 0.0000
02:48 17.1 12.2 73 270 0.3 1.1 1013.5 0.0000 0.0000
02:58 17.1 12.2 73 270 0.3 1.4 1013.3 0.0000 0.0000
03:08 17.1 12.4 74 270 0.3 1.4 1013.4 0.0000 0.0000
03:18 17.1 12.4 74 270 0.3 1.4 1013.4 0.0000 0.0000
03:28 17 12.3 74 270 0.3 1.4 1013.3 0.0000 0.0000
03:38 17 12.3 74 270 0.3 1.9 1013.1 0.0000 0.0000
03:48 17 12.3 74 270 0.3 1.1 1013 0.0000 0.0000
03:59 17 12.3 74 270 0.3 1.4 1013.2 0.0000 0.0000
04:09 17 12.3 74 270 0.3 1.4 1013 0.0000 0.0000
04:18 17 12.3 74 270 0.3 1.9 1013 0.0000 0.0000
04:28 17 12.3 74 270 0.3 1.4 1012.9 0.0000 0.0000
04:39 17 12.5 75 270 0.3 1.1 1012.9 0.0000 0.0000
04:49 16.9 12.4 75 270 0.3 1.4 1012.9 0.0000 0.0000
04:59 16.9 12.4 75 270 0.3 1.1 1012.8 0.0000 0.0000
05:09 16.9 12.4 75 270 0.3 0.8 1012.8 0.0000 0.0000
05:19 16.9 12.4 75 270 0.3 1.4 1012.8 0.0000 0.0000
05:29 16.9 12.4 75 270 0.3 1.4 1013 0.0000 0.0000
05:39 16.8 12.3 75 270 0.3 1.9 1012.9 0.0000 0.0000
05:50 16.8 12.3 75 270 0.8 1.4 1013 0.0000 0.0000
05:59 16.8 12.3 75 270 0.3 1.1 1012.9 0.0000 0.0000
06:09 16.7 12.3 75 270 0.8 1.4 1013 0.0000 0.0000
06:20 16.7 12.3 75 270 0.3 1.1 1013.1 0.0000 0.0000
06:30 16.7 12.3 75 270 0.8 1.4 1013 0.0000 0.0000
06:40 16.6 12.4 76 270 0.3 1.4 1013.1 0.0000 0.0000
06:49 16.6 12.4 76 270 0.3 1.1 1013.1 0.0000 0.0000
07:00 16.6 12.4 76 270 0.3 1.1 1013.2 0.0000 0.0000
07:10 16.6 12.4 76 270 0.3 1.1 1013.3 0.0000 0.0000
07:20 16.6 12.4 76 270 0.3 1.4 1013.3 0.0000 0.0000
07:30 16.6 12.4 76 270 0.3 1.1 1013.4 0.0000 0.0000
07:40 16.6 12.4 76 270 0.3 1.4 1013.3 0.0000 0.0000
07:50 16.6 12.4 76 254 0.8 1.9 1013.6 0.0000 0.0000
08:00 16.5 12.3 76 270 0.3 1.4 1013.5 0.0000 0.0000
08:11 16.5 12.3 76 270 0.3 1.4 1013.4 0.0000 0.0000
08:20 16.4 12.2 76 270 0.3 1.4 1013.5 0.0000 0.0000
08:30 16.4 12.2 76 270 0.3 1.4 1013.5 0.0000 0.0000
08:40 16.4 12.2 76 270 0.3 1.4 1013.3 0.0000 0.0000
08:51 16.4 12.2 76 270 0.3 1.4 1013.5 0.0000 0.0000
09:01 16.4 12.2 76 270 0.3 1.1 1013.5 0.0000 0.0000
09:10 16.4 12.2 76 270 0.3 1.1 1013.4 0.0000 0.0000
09:21 16.4 12.2 76 258 0.8 1.9 1013.5 0.0000 0.0000
09:31 16.4 12.2 76 270 0.3 1.4 1013.6 0.0000 0.0000
09:41 16.4 12.2 76 270 0.3 1.9 1013.5 0.0000 0.0000
09:51 16.4 12.2 76 270 0.3 2.5 1013.5 0.0000 0.0000
10:01 16.5 12.3 76 270 0.3 1.4 1013.6 0.0000 0.0000
10:11 16.5 12.3 76 270 0.3 1.1 1013.7 0.0000 0.0000
10:21 16.5 12.3 76 270 0.3 1.4 1013.7 0.0000 0.0000
10:32 16.6 12.4 76 270 0.8 1.4 1013.8 0.0000 0.0000
10:42 16.6 12.4 76 251 0.8 2.5 1013.9 0.0000 0.0000
10:51 16.7 12.5 76 253 0.8 2.2 1013.8 0.0000 0.0000
11:01 16.9 12.6 76 270 0.3 1.9 1013.7 0.0000 0.0000
11:12 17.1 12.8 76 270 0.3 1.4 1013.6 0.0000 0.0000
11:22 17.3 13 76 270 0.3 1.4 1013.4 0.0000 0.0000
11:32 17.5 13 75 248 0.8 2.5 1013.4 0.0000 0.0000
11:42 17.7 13.2 75 270 0.8 1.9 1013.5 0.0000 0.0000
11:52 17.8 13.1 74 270 0.8 2.2 1013.4 0.0000 0.0000
12:02 18 13.3 74 249 0.8 1.9 1013.3 0.0000 0.0000
12:12 18.1 13.2 73 270 0.3 2.2 1013.2 0.0000 0.0000
13:09 18.4 13.3 72 294 0.8 1.4 1013.1 0.0000 0.0000
13:19 18.5 13.4 72 295 1.1 2.2 1012.9 0.0000 0.0000
13:29 18.6 13.2 71 300 0.8 1.9 1012.7 0.0000 0.0000
13:39 18.8 13.4 71 303 0.8 2.2 1012.7 0.0000 0.0000
13:44 18.8 13.4 71 290 1.1 3.3 1012.6 0.0000 0.0000
14:14 19.2 13.6 70 298 0.8 2.2 1012.5 0.0000 0.0000
14:30 19.3 13.5 69 300 0.8 1.9 1012.5 0.0000 0.0000
14:40 19.3 13.5 69 300 0.8 2.2 1012.4 0.0000 0.0000
14:45 19.3 13.5 69 289 0.8 1.9 1012.4 0.0000 0.0000
14:54 19.3 13.5 69 308 0.8 1.9 1012.3 0.0000 0.0000
15:05 19.3 13.5 69 294 0.8 1.9 1012.3 0.0000 0.0000
15:15 19.3 13.5 69 290 0.8 1.4 1012.1 0.0000 0.0000
15:25 19.3 13.5 69 298 0.8 2.2 1012.1 0.0000 0.0000
15:35 19.4 13.6 69 290 0.8 1.9 1011.9 0.0000 0.0000
15:45 19.5 13.7 69 296 0.8 1.9 1011.8 0.0000 0.0000
15:55 19.5 13.7 69 299 0.8 1.4 1011.8 0.0000 0.0000
16:05 19.5 13.7 69 284 0.8 1.9 1011.6 0.0000 0.0000
16:16 19.5 13.7 69 289 0.8 1.9 1011.5 0.0000 0.0000
16:26 19.6 13.8 69 300 0.8 1.9 1011.4 0.0000 0.0000
16:35 19.7 13.9 69 270 1.1 2.5 1011.5 0.0000 0.0000
16:45 19.8 14 69 293 0.8 1.4 1011.3 0.0000 0.0000
16:56 19.8 14 69 282 0.8 1.9 1011.3 0.0000 0.0000
17:16 20 13.9 68 287 0.8 1.4 1011.1 0.0000 0.0000
17:26 20.2 13.9 67 259 1.1 2.5 1011 0.0000 0.0000
17:36 20.3 13.7 66 233 1.1 2.2 1011.1 0.0000 0.0000
17:46 20.3 13.7 66 230 1.4 3.3 1011.2 0.0000 0.0000
17:56 20.3 13.5 65 229 1.4 3.3 1011.3 0.0000 0.0000
18:06 20.2 13.4 65 238 1.1 2.5 1011.3 0.0000 0.0000
18:16 20.2 13.4 65 236 1.1 3.3 1011.3 0.0000 0.0000
18:26 20.1 13.3 65 235 1.1 2.2 1011.3 0.0000 0.0000
18:37 20 13.5 66 235 1.1 3.3 1011.4 0.0000 0.0000
18:47 20 13.5 66 234 1.1 2.5 1011.4 0.0000 0.0000
18:56 19.9 13.4 66 240 0.8 2.5 1011.5 0.0000 0.0000
19:06 19.8 13.5 67 245 0.8 1.9 1011.4 0.0000 0.0000
19:32 19.5 13.4 68 241 0.8 1.9 1011.4 0.0000 0.0000
19:52 19.4 13.3 68 236 1.1 1.4 1011.7 0.0000 0.0000
20:02 19.3 13.3 68 237 0.8 2.2 1011.7 0.0000 0.0000
20:12 19.2 13.4 69 242 0.8 1.9 1011.7 0.0000 0.0000
20:22 19.2 13.4 69 243 0.8 1.9 1011.9 0.0000 0.0000
20:32 19 13.2 69 244 0.8 1.4 1012 0.0000 0.0000
20:42 18.9 13.1 69 270 0.3 1.4 1012.2 0.0000 0.0000
20:52 18.8 13.2 70 254 0.8 1.4 1012.2 0.0000 0.0000
21:03 18.7 13.1 70 270 0.3 1.1 1012.3 0.0000 0.0000
21:12 18.6 13 70 247 0.8 1.9 1012.4 0.0000 0.0000
21:22 18.5 12.9 70 245 0.8 1.4 1012.3 0.0000 0.0000
21:33 18.4 12.8 70 246 0.8 1.9 1012.4 0.0000 0.0000
21:43 18.2 12.6 70 270 0.3 1.4 1012.5 0.0000 0.0000
21:53 18 12.7 71 321 0.3 1.1 1012.6 0.0000 0.0000
22:02 17.9 12.6 71 305 0.3 1.1 1012.4 0.0000 0.0000
22:13 17.8 12.5 71 270 0.3 1.1 1012.3 0.0000 0.0000
22:23 17.7 12.4 71 270 0.3 0.8 1012.4 0.0000 0.0000
22:33 17.5 12.2 71 315 0.3 1.1 1012.3 0.0000 0.0000
22:46 17.4 12.1 71 315 0.3 1.1 1012.3 0.0000 0.0000
22:56 17.3 12.2 72 30 0.3 1.1 1012.4 0.0000 0.0000
23:06 17.2 12.1 72 348 0.3 1.1 1012.2 0.0000 0.0000
23:17 17.1 12 72 341 0.3 1.1 1012.3 0.0000 0.0000
23:26 17 11.9 72 351 0.3 1.1 1012.4 0.0000

STATYSTYKA DNIA

2021-09-24
TEMPERATURA
ŚREDNIA
17.8
MAKSIMUM
20.3
17:36
MINIMUM
16.4
08:20
CIŚNIENIE
ŚREDNIA
1012.8
MAKSIMUM
1013.9
00:27
MINIMUM
1011.0
17:26
PUNKT ROSY
ŚREDNIA
12.7
MAKSIMUM
14.0
16:45
MINIMUM
11.8
00:27
WILGOTNOŚĆ
ŚREDNIA
72
MAKSIMUM
76
06:40
MINIMUM
65
17:56
PRĘDKOŚĆ WIATRU
ŚREDNIA
0.5
MAKSIMUM
1.4
17:46
WIND GUST
ŚREDNIA
1.6
MAKSIMUM
3.3
13:44
KIERUNEK WIATRU
PREVAILING
W
68.5%
N
2.3
NE
0.8
E
0.0
SE
0.0
S
0.0
SW
14.6
W
68.5
NW
13.8
OPADY
OPADY GODZINA
0.0
OPADY DZIENNE
0.0
TEMPERATURA (°C)
MINIMUM
16.4
MAKSIMUM
20.3
ŚREDNIA
17.8
CIŚNIENIE (hpa)
MINIMUM
1011.0
MAKSIMUM
1013.9
ŚREDNIA
1012.8
DEVICE